Time;durP1;ratioP1;P1;durP2;ratioP2;P2;SDS_P1;SDS_P2;PMS_P1;PMS_P2;Temp;Humidity;BMP_temperature;BMP_pressure;BME280_temperature;BME280_humidity;BME280_pressure;Samples;Min_cycle;Max_cycle;Signal;HPM_P1;HPM_P2
2022/03/27 00:01:36;;;;;;;;;;;7.30;99.90;;;;;;5119106;27;20424;-69
2022/03/27 00:04:02;;;;;;;;;;;6.80;99.90;;;;;;5136927;27;19980;-70
2022/03/27 00:06:28;;;;;;;;;;;6.80;99.90;;;;;;5137071;27;19930;-69
2022/03/27 00:08:53;;;;;;;;;;;6.70;99.90;;;;;;5136995;27;19923;-70
2022/03/27 00:11:26;;;;;;;;;;;6.70;99.90;;;;;;5136948;27;19924;-69
2022/03/27 00:13:58;;;;;;;;;;;6.80;99.90;;;;;;5136739;27;19931;-71
2022/03/27 00:16:24;;;;;;;;;;;6.70;99.90;;;;;;5136910;27;19930;-71
2022/03/27 00:18:50;;;;;;;;;;;8.10;99.90;;;;;;5136742;27;19927;-69
2022/03/27 00:21:15;;;;;;;;;;;7.00;99.90;;;;;;5136719;27;19923;-70
2022/03/27 00:23:43;;;;;;;;;;;7.00;99.90;;;;;;5136779;27;19923;-70
2022/03/27 00:26:09;;;;;;;;;;;6.70;99.90;;;;;;5136591;27;19924;-70
2022/03/27 00:28:35;;;;;;;;;;;7.00;99.90;;;;;;5136465;27;20006;-70
2022/03/27 00:31:04;;;;;;;;;;;6.70;99.90;;;;;;5136704;27;19981;-70
2022/03/27 00:33:30;;;;;;;;;;;6.70;99.90;;;;;;5136368;27;19924;-69
2022/03/27 00:35:56;;;;;;;;;;;7.80;99.90;;;;;;5118289;27;19930;-70
2022/03/27 00:38:22;;;;;;;;;;;6.90;99.90;;;;;;5136396;27;19923;-70
2022/03/27 00:40:50;;;;;;;;;;;7.80;99.90;;;;;;5136328;27;19924;-70
2022/03/27 00:43:16;;;;;;;;;;;6.70;99.90;;;;;;5117954;27;19924;-71
2022/03/27 00:45:42;;;;;;;;;;;6.70;99.90;;;;;;5136153;27;19924;-70
2022/03/27 00:48:07;;;;;;;;;;;5.20;99.90;;;;;;5118226;27;20267;-70
2022/03/27 00:50:33;;;;;;;;;;;6.70;99.90;;;;;;5136257;27;20042;-69
2022/03/27 00:52:58;;;;;;;;;;;7.00;99.90;;;;;;5136124;27;20355;-69
2022/03/27 00:55:24;;;;;;;;;;;6.70;99.90;;;;;;5135980;27;20034;-70
2022/03/27 00:57:50;;;;;;;;;;;6.70;99.90;;;;;;5117458;27;19946;-70
2022/03/27 01:00:39;;;;;;;;;;;6.90;99.90;;;;;;5117743;27;19972;-69
2022/03/27 01:03:09;;;;;;;;;;;6.70;99.90;;;;;;5135664;27;19927;-69
2022/03/27 01:05:35;;;;;;;;;;;6.70;99.90;;;;;;5117610;27;19963;-68
2022/03/27 01:08:01;;;;;;;;;;;7.80;99.90;;;;;;5135780;27;19923;-69
2022/03/27 01:10:27;;;;;;;;;;;6.70;99.90;;;;;;5135621;27;19929;-70
2022/03/27 01:12:53;;;;;;;;;;;6.70;99.90;;;;;;5135501;27;19927;-70
2022/03/27 01:15:30;;;;;;;;;;;6.70;99.90;;;;;;5135738;27;20019;-70
2022/03/27 01:17:55;;;;;;;;;;;6.70;99.90;;;;;;5135571;27;19968;-70
2022/03/27 01:20:39;;;;;;;;;;;6.70;99.90;;;;;;5117269;27;20006;-69
2022/03/27 01:23:07;;;;;;;;;;;6.70;99.90;;;;;;5135442;27;20454;-69
2022/03/27 01:25:33;;;;;;;;;;;7.40;99.90;;;;;;5135334;27;19934;-71
2022/03/27 01:27:59;;;;;;;;;;;6.70;99.90;;;;;;5135564;27;19923;-70
2022/03/27 01:30:24;;;;;;;;;;;7.00;99.90;;;;;;5116688;27;19981;-70
2022/03/27 01:32:51;;;;;;;;;;;6.70;99.90;;;;;;5135262;27;19977;-70
2022/03/27 01:35:18;;;;;;;;;;;7.40;99.90;;;;;;5135166;27;20044;-70
2022/03/27 01:37:44;;;;;;;;;;;6.70;99.90;;;;;;5117106;27;19975;-69
2022/03/27 01:40:10;;;;;;;;;;;7.60;99.90;;;;;;5135058;27;19952;-70
2022/03/27 01:42:35;;;;;;;;;;;6.70;99.90;;;;;;5135328;27;19931;-71
2022/03/27 01:45:01;;;;;;;;;;;6.70;99.90;;;;;;5135170;27;19927;-70
2022/03/27 01:47:26;;;;;;;;;;;6.70;99.90;;;;;;5134972;27;19923;-69
2022/03/27 01:49:52;;;;;;;;;;;7.00;99.90;;;;;;5135030;27;19927;-71
2022/03/27 01:52:17;;;;;;;;;;;7.20;99.90;;;;;;5135272;27;19977;-69
2022/03/27 01:54:43;;;;;;;;;;;6.70;99.90;;;;;;5134731;27;19976;-70
2022/03/27 01:57:09;;;;;;;;;;;6.60;99.90;;;;;;5135176;27;19927;-70
2022/03/27 01:59:35;;;;;;;;;;;6.90;99.90;;;;;;5116986;27;20382;-69
2022/03/27 02:02:00;;;;;;;;;;;7.30;99.90;;;;;;5116892;28;19975;-69
2022/03/27 02:04:26;;;;;;;;;;;6.50;99.90;;;;;;5116764;27;20347;-70
2022/03/27 02:06:51;;;;;;;;;;;6.50;99.90;;;;;;5134838;27;19978;-70
2022/03/27 02:09:17;;;;;;;;;;;6.50;99.90;;;;;;5116674;28;19930;-70
2022/03/27 02:11:43;;;;;;;;;;;6.40;99.90;;;;;;5134634;27;19934;-71
2022/03/27 02:14:09;;;;;;;;;;;6.70;99.90;;;;;;5116723;28;19923;-70
2022/03/27 02:16:35;;;;;;;;;;;6.40;99.90;;;;;;5134415;27;20270;-69
2022/03/27 02:19:00;;;;;;;;;;;6.40;99.90;;;;;;5134436;28;19928;-69
2022/03/27 02:21:26;;;;;;;;;;;6.40;99.90;;;;;;5134611;28;19946;-70
2022/03/27 02:23:52;;;;;;;;;;;6.30;99.90;;;;;;5134627;28;19923;-69
2022/03/27 02:26:17;;;;;;;;;;;6.30;99.90;;;;;;5099107;28;19923;-69
2022/03/27 02:28:43;;;;;;;;;;;6.30;99.90;;;;;;5116361;28;19930;-69
2022/03/27 02:31:09;;;;;;;;;;;6.90;99.90;;;;;;5134712;28;19931;-71
2022/03/27 02:33:35;;;;;;;;;;;6.20;99.90;;;;;;5134408;28;20422;-69
2022/03/27 02:36:01;;;;;;;;;;;6.10;99.90;;;;;;5134492;28;20305;-70
2022/03/27 02:38:27;;;;;;;;;;;6.10;99.90;;;;;;5134502;28;20012;-71
2022/03/27 02:40:53;;;;;;;;;;;5.90;99.90;;;;;;5116341;28;19989;-70
2022/03/27 02:43:18;;;;;;;;;;;6.30;99.90;;;;;;5134357;28;19923;-70
2022/03/27 02:45:44;;;;;;;;;;;7.30;99.90;;;;;;5134481;28;20366;-69
2022/03/27 02:48:10;;;;;;;;;;;5.80;99.90;;;;;;5134242;28;20010;-69
2022/03/27 02:50:38;;;;;;;;;;;6.20;99.90;;;;;;5134390;28;19923;-70
2022/03/27 02:53:04;;;;;;;;;;;5.80;99.90;;;;;;5116025;28;20018;-69
2022/03/27 02:55:30;;;;;;;;;;;5.80;99.90;;;;;;5134184;28;20022;-69
2022/03/27 02:57:56;;;;;;;;;;;6.50;99.90;;;;;;5134181;28;19980;-71
2022/03/27 03:00:21;;;;;;;;;;;5.80;99.90;;;;;;5134384;28;20010;-71
2022/03/27 03:02:47;;;;;;;;;;;5.80;99.90;;;;;;5134240;28;20401;-70
2022/03/27 03:05:13;;;;;;;;;;;5.90;99.90;;;;;;5116231;28;19970;-70
2022/03/27 03:07:41;;;;;;;;;;;5.90;99.90;;;;;;5134235;28;19930;-70
2022/03/27 03:10:07;;;;;;;;;;;5.90;99.90;;;;;;5134140;28;19975;-70
2022/03/27 03:12:32;;;;;;;;;;;6.00;99.90;;;;;;5134027;28;19928;-70
2022/03/27 03:14:58;;;;;;;;;;;5.90;99.90;;;;;;5115956;28;19931;-70
2022/03/27 03:17:23;;;;;;;;;;;6.00;99.90;;;;;;5134183;28;20286;-70
2022/03/27 03:19:49;;;;;;;;;;;6.00;99.90;;;;;;5134068;28;19946;-70
2022/03/27 03:22:15;;;;;;;;;;;6.00;99.90;;;;;;5133995;28;20293;-69
2022/03/27 03:24:40;;;;;;;;;;;5.90;99.90;;;;;;5134041;28;19931;-70
2022/03/27 03:27:06;;;;;;;;;;;6.00;99.90;;;;;;5098883;28;19927;-70
2022/03/27 03:29:33;;;;;;;;;;;5.60;99.90;;;;;;5135304;27;19923;-69
2022/03/27 03:31:58;;;;;;;;;;;6.00;99.90;;;;;;5119466;27;19962;-70
2022/03/27 03:34:24;;;;;;;;;;;6.00;99.90;;;;;;5137486;27;19978;-70
2022/03/27 03:36:49;;;;;;;;;;;6.70;99.90;;;;;;5137598;27;19940;-70
2022/03/27 03:39:15;;;;;;;;;;;6.00;99.90;;;;;;5102514;27;20002;-70
2022/03/27 03:41:40;;;;;;;;;;;6.10;99.90;;;;;;5137443;27;20332;-69
2022/03/27 03:44:07;;;;;;;;;;;6.00;99.90;;;;;;5119256;27;20302;-70
2022/03/27 03:46:33;;;;;;;;;;;6.00;99.90;;;;;;5137547;27;19972;-70
2022/03/27 03:48:58;;;;;;;;;;;5.60;99.90;;;;;;5119387;27;19924;-69
2022/03/27 03:51:24;;;;;;;;;;;6.20;99.90;;;;;;5119244;27;19923;-71
2022/03/27 03:53:50;;;;;;;;;;;6.60;99.90;;;;;;5137249;27;19931;-70
2022/03/27 03:56:15;;;;;;;;;;;6.40;99.90;;;;;;5137339;27;19930;-70
2022/03/27 03:58:41;;;;;;;;;;;6.00;99.90;;;;;;5136807;27;19927;-70
2022/03/27 04:01:07;;;;;;;;;;;5.90;99.90;;;;;;5137234;27;19927;-69
2022/03/27 04:03:32;;;;;;;;;;;5.90;99.90;;;;;;5137045;27;19972;-69
2022/03/27 04:05:59;;;;;;;;;;;5.90;99.90;;;;;;5137082;27;19931;-70
2022/03/27 04:08:24;;;;;;;;;;;6.00;99.90;;;;;;5118981;27;19923;-71
2022/03/27 04:10:50;;;;;;;;;;;5.90;99.90;;;;;;5118850;27;19930;-70
2022/03/27 04:13:15;;;;;;;;;;;7.10;99.90;;;;;;5136941;27;20289;-70
2022/03/27 04:15:41;;;;;;;;;;;6.90;99.90;;;;;;5118260;27;20271;-68
2022/03/27 04:18:07;;;;;;;;;;;6.40;99.90;;;;;;5136798;27;19931;-70
2022/03/27 04:20:34;;;;;;;;;;;6.60;99.90;;;;;;5118736;27;19980;-70
2022/03/27 04:23:00;;;;;;;;;;;6.90;99.90;;;;;;5136753;27;19976;-70
2022/03/27 04:25:26;;;;;;;;;;;6.00;99.90;;;;;;5136698;27;20400;-69
2022/03/27 04:27:52;;;;;;;;;;;6.00;99.90;;;;;;5136701;27;20014;-70
2022/03/27 04:30:17;;;;;;;;;;;6.50;99.90;;;;;;5136441;27;20382;-71
2022/03/27 04:32:43;;;;;;;;;;;6.10;99.90;;;;;;5118339;27;19999;-70
2022/03/27 04:35:09;;;;;;;;;;;6.10;99.90;;;;;;5136492;27;19930;-68
2022/03/27 04:37:41;;;;;;;;;;;6.10;99.90;;;;;;5136483;27;19923;-70
2022/03/27 04:40:08;;;;;;;;;;;6.10;99.90;;;;;;5135881;27;20390;-69
2022/03/27 04:42:33;;;;;;;;;;;6.10;99.90;;;;;;5136165;27;19928;-70
2022/03/27 04:44:59;;;;;;;;;;;6.40;99.90;;;;;;5136146;27;20064;-70
2022/03/27 04:47:25;;;;;;;;;;;7.10;99.90;;;;;;5118197;27;20374;-71
2022/03/27 04:49:50;;;;;;;;;;;6.10;99.90;;;;;;5136281;27;19923;-69
2022/03/27 04:52:16;;;;;;;;;;;7.20;99.90;;;;;;5136106;27;19984;-68
2022/03/27 04:54:42;;;;;;;;;;;6.10;99.90;;;;;;5136075;27;19985;-70
2022/03/27 04:57:07;;;;;;;;;;;6.10;99.90;;;;;;5117642;27;19923;-69
2022/03/27 04:59:33;;;;;;;;;;;6.10;99.90;;;;;;5135890;27;20401;-69
2022/03/27 05:01:59;;;;;;;;;;;6.10;99.90;;;;;;5136015;27;20027;-69
2022/03/27 05:04:25;;;;;;;;;;;7.40;99.90;;;;;;5135860;27;19977;-71
2022/03/27 05:06:51;;;;;;;;;;;6.90;99.90;;;;;;5135860;27;19923;-70
2022/03/27 05:09:18;;;;;;;;;;;7.20;99.90;;;;;;5135811;27;19968;-70
2022/03/27 05:11:43;;;;;;;;;;;6.90;99.90;;;;;;5135731;27;20042;-71
2022/03/27 05:14:09;;;;;;;;;;;4.90;99.90;;;;;;5135529;27;20018;-70
2022/03/27 05:16:34;;;;;;;;;;;6.40;99.90;;;;;;5117499;27;20431;-69
2022/03/27 05:19:00;;;;;;;;;;;6.10;99.90;;;;;;5117619;27;20347;-70
2022/03/27 05:21:26;;;;;;;;;;;6.50;99.90;;;;;;5117280;27;19923;-70
2022/03/27 05:23:51;;;;;;;;;;;6.10;99.90;;;;;;5135572;27;19969;-70
2022/03/27 05:26:17;;;;;;;;;;;6.10;99.90;;;;;;5117363;27;19923;-71
2022/03/27 05:28:43;;;;;;;;;;;6.10;99.90;;;;;;5117012;27;19935;-69
2022/03/27 05:31:09;;;;;;;;;;;6.10;99.90;;;;;;5135272;27;19924;-69
2022/03/27 05:33:35;;;;;;;;;;;7.70;99.90;;;;;;5135345;27;19923;-69
2022/03/27 05:36:01;;;;;;;;;;;6.10;99.90;;;;;;5117305;27;19976;-70
2022/03/27 05:38:27;;;;;;;;;;;6.20;99.90;;;;;;5117429;27;19929;-70
2022/03/27 05:40:52;;;;;;;;;;;6.90;99.90;;;;;;5116934;27;19927;-69
2022/03/27 05:43:18;;;;;;;;;;;6.20;99.90;;;;;;5135182;27;19978;-69
2022/03/27 05:45:43;;;;;;;;;;;6.20;99.90;;;;;;5135021;27;19924;-71
2022/03/27 05:48:09;;;;;;;;;;;6.20;99.90;;;;;;5135187;27;19931;-69
2022/03/27 05:50:34;;;;;;;;;;;6.20;99.90;;;;;;5134942;27;20277;-69
2022/03/27 05:53:00;;;;;;;;;;;6.50;99.90;;;;;;5116210;27;19923;-70
2022/03/27 05:55:25;;;;;;;;;;;6.60;99.90;;;;;;5116589;27;19924;-70
2022/03/27 05:57:51;;;;;;;;;;;6.30;99.90;;;;;;5134870;27;19923;-70
2022/03/27 06:00:20;;;;;;;;;;;6.30;99.90;;;;;;5116908;27;19930;-70
2022/03/27 06:02:46;;;;;;;;;;;6.30;99.90;;;;;;5134873;27;19931;-69
2022/03/27 06:05:12;;;;;;;;;;;6.70;99.90;;;;;;5135020;27;19924;-71
2022/03/27 06:07:47;;;;;;;;;;;6.50;99.90;;;;;;5134874;27;20301;-71
2022/03/27 06:10:14;;;;;;;;;;;6.30;99.90;;;;;;5134624;27;19927;-70
2022/03/27 06:12:40;;;;;;;;;;;7.10;99.90;;;;;;5115518;28;19988;-69
2022/03/27 06:15:07;;;;;;;;;;;6.40;99.90;;;;;;5134544;27;20331;-70
2022/03/27 06:17:39;;;;;;;;;;;6.30;99.90;;;;;;5134859;27;19923;-69
2022/03/27 06:20:05;;;;;;;;;;;6.30;99.90;;;;;;5134680;28;19927;-71
2022/03/27 06:22:30;;;;;;;;;;;6.40;99.90;;;;;;5134722;28;19923;-70
2022/03/27 06:24:56;;;;;;;;;;;6.40;99.90;;;;;;5134761;28;20018;-70
2022/03/27 06:27:21;;;;;;;;;;;6.70;99.90;;;;;;5116323;28;19924;-70
2022/03/27 06:29:47;;;;;;;;;;;6.70;99.90;;;;;;5134545;28;19923;-70
2022/03/27 06:32:12;;;;;;;;;;;7.50;99.90;;;;;;5134819;28;19928;-73
2022/03/27 06:34:38;;;;;;;;;;;6.80;99.90;;;;;;5116319;28;20348;-70
2022/03/27 06:37:04;;;;;;;;;;;6.40;99.90;;;;;;5134533;28;19946;-70
2022/03/27 06:39:29;;;;;;;;;;;6.40;99.90;;;;;;5134473;28;19946;-70
2022/03/27 06:41:55;;;;;;;;;;;6.40;99.90;;;;;;5134484;28;19936;-69
2022/03/27 06:44:21;;;;;;;;;;;6.40;99.90;;;;;;5134415;28;19924;-69
2022/03/27 06:46:47;;;;;;;;;;;6.40;99.90;;;;;;5134248;28;19969;-70
2022/03/27 06:49:13;;;;;;;;;;;4.80;99.90;;;;;;5116416;28;20328;-70
2022/03/27 06:51:38;;;;;;;;;;;6.40;99.90;;;;;;5134629;28;19976;-70
2022/03/27 06:54:04;;;;;;;;;;;6.40;99.90;;;;;;5134358;28;19976;-71
2022/03/27 06:56:30;;;;;;;;;;;6.40;99.90;;;;;;5134313;28;20367;-70
2022/03/27 06:58:56;;;;;;;;;;;6.40;99.90;;;;;;5115757;28;20286;-70
2022/03/27 07:04:06;;;;;;;;;;;6.40;99.90;;;;;;5135846;27;19923;-69
2022/03/27 07:06:32;;;;;;;;;;;6.50;99.90;;;;;;5118225;27;20026;-72
2022/03/27 07:08:59;;;;;;;;;;;6.50;99.90;;;;;;5152829;27;19930;-72
2022/03/27 07:11:25;;;;;;;;;;;6.50;99.90;;;;;;5179494;27;19923;-69
2022/03/27 07:13:50;;;;;;;;;;;6.40;99.90;;;;;;5179441;27;20285;-70
2022/03/27 07:16:16;;;;;;;;;;;7.10;99.90;;;;;;5179484;27;20000;-70
2022/03/27 07:18:42;;;;;;;;;;;7.40;99.90;;;;;;5179677;27;19937;-71
2022/03/27 07:21:08;;;;;;;;;;;7.40;99.90;;;;;;5179330;27;20036;-71
2022/03/27 07:23:33;;;;;;;;;;;6.60;99.90;;;;;;5179427;27;20385;-70
2022/03/27 07:26:00;;;;;;;;;;;6.60;99.90;;;;;;5179449;27;19923;-71
2022/03/27 07:28:28;;;;;;;;;;;6.60;99.90;;;;;;5179274;27;19923;-71
2022/03/27 07:30:54;;;;;;;;;;;6.60;99.90;;;;;;5179197;27;20285;-69
2022/03/27 07:33:21;;;;;;;;;;;6.60;99.90;;;;;;5179344;27;19966;-70
2022/03/27 07:35:46;;;;;;;;;;;6.70;99.90;;;;;;5179071;27;19922;-71
2022/03/27 07:38:12;;;;;;;;;;;6.80;99.90;;;;;;5179193;27;20441;-71
2022/03/27 07:40:38;;;;;;;;;;;6.70;99.90;;;;;;5160651;27;19923;-69
2022/03/27 07:43:04;;;;;;;;;;;7.20;99.90;;;;;;5160808;27;20289;-69
2022/03/27 07:45:31;;;;;;;;;;;7.00;99.90;;;;;;5160514;27;19930;-69
2022/03/27 07:47:57;;;;;;;;;;;7.10;99.90;;;;;;5179074;27;19923;-70
2022/03/27 07:50:23;;;;;;;;;;;6.70;99.90;;;;;;5178984;27;19922;-69
2022/03/27 07:52:49;;;;;;;;;;;6.80;99.90;;;;;;5178951;27;20005;-69
2022/03/27 07:55:16;;;;;;;;;;;7.40;99.90;;;;;;5163436;27;20002;-70
2022/03/27 07:57:42;;;;;;;;;;;7.50;99.90;;;;;;5151563;27;19966;-71
2022/03/27 08:00:10;;;;;;;;;;;6.80;99.90;;;;;;5147421;27;20404;-71
2022/03/27 08:02:39;;;;;;;;;;;6.70;99.90;;;;;;5152757;27;19923;-69
2022/03/27 08:05:05;;;;;;;;;;;6.90;99.90;;;;;;5164174;27;19923;-70
2022/03/27 08:07:31;;;;;;;;;;;6.90;99.90;;;;;;5172203;27;20002;-69
2022/03/27 08:09:56;;;;;;;;;;;6.90;99.90;;;;;;5152039;27;19993;-71
2022/03/27 08:12:22;;;;;;;;;;;6.90;99.90;;;;;;5139065;27;19923;-72
2022/03/27 08:14:50;;;;;;;;;;;7.00;99.90;;;;;;5137995;27;19923;-70
2022/03/27 08:17:16;;;;;;;;;;;7.00;99.90;;;;;;5157652;27;19976;-71
2022/03/27 08:19:43;;;;;;;;;;;8.10;99.90;;;;;;5139419;27;20328;-70
2022/03/27 08:22:09;;;;;;;;;;;7.10;99.90;;;;;;5157405;27;19930;-70
2022/03/27 08:24:35;;;;;;;;;;;8.40;99.90;;;;;;5157488;27;20384;-70
2022/03/27 08:27:02;;;;;;;;;;;7.20;99.90;;;;;;5157336;27;19962;-71
2022/03/27 08:29:46;;;;;;;;;;;7.20;99.90;;;;;;5157066;27;19930;-72
2022/03/27 08:32:14;;;;;;;;;;;7.20;99.90;;;;;;5156541;27;20033;-71
2022/03/27 08:34:41;;;;;;;;;;;7.30;99.90;;;;;;5156307;27;19933;-70
2022/03/27 08:37:08;;;;;;;;;;;8.20;99.90;;;;;;5156776;27;19934;-71
2022/03/27 08:39:34;;;;;;;;;;;7.30;99.90;;;;;;5156826;27;19923;-72
2022/03/27 08:42:00;;;;;;;;;;;7.40;99.90;;;;;;5138433;27;19923;-72
2022/03/27 08:44:29;;;;;;;;;;;7.40;99.90;;;;;;5156687;27;19983;-71
2022/03/27 08:46:56;;;;;;;;;;;7.50;99.90;;;;;;5156518;27;20008;-71
2022/03/27 08:49:41;;;;;;;;;;;8.50;99.90;;;;;;5156661;27;19923;-71
2022/03/27 08:52:23;;;;;;;;;;;7.50;99.90;;;;;;5137747;27;20323;-71
2022/03/27 08:54:48;;;;;;;;;;;7.60;99.90;;;;;;5137942;27;19923;-72
2022/03/27 08:57:24;;;;;;;;;;;7.70;99.90;;;;;;5138408;27;19929;-72
2022/03/27 08:59:53;;;;;;;;;;;7.70;99.90;;;;;;5156510;27;20009;-71
2022/03/27 09:02:24;;;;;;;;;;;7.70;99.90;;;;;;5156462;27;20374;-71
2022/03/27 09:04:52;;;;;;;;;;;7.70;99.90;;;;;;5120831;27;19934;-70
2022/03/27 09:07:17;;;;;;;;;;;9.20;99.90;;;;;;5156169;27;19923;-72
2022/03/27 09:09:43;;;;;;;;;;;8.60;99.90;;;;;;5156132;27;20304;-71
2022/03/27 09:12:09;;;;;;;;;;;7.90;99.90;;;;;;5137773;27;19923;-72
2022/03/27 09:14:35;;;;;;;;;;;8.10;99.90;;;;;;5156129;27;19923;-71
2022/03/27 09:17:05;;;;;;;;;;;9.00;99.90;;;;;;5156018;27;20281;-72
2022/03/27 09:19:31;;;;;;;;;;;8.10;99.90;;;;;;5155956;27;19923;-71
2022/03/27 09:21:59;;;;;;;;;;;8.10;99.90;;;;;;5156201;27;19930;-72
2022/03/27 09:24:35;;;;;;;;;;;8.20;99.90;;;;;;5155921;27;19930;-71
2022/03/27 09:27:00;;;;;;;;;;;8.20;99.90;;;;;;5137691;27;19930;-73
2022/03/27 09:29:26;;;;;;;;;;;8.20;99.90;;;;;;5155960;27;20010;-72
2022/03/27 09:31:58;;;;;;;;;;;8.30;99.90;;;;;;5155926;27;20322;-72
2022/03/27 09:34:23;;;;;;;;;;;8.40;99.90;;;;;;5155527;27;20305;-72
2022/03/27 09:36:50;;;;;;;;;;;8.40;99.90;;;;;;5155791;27;19923;-72
2022/03/27 09:39:19;;;;;;;;;;;8.40;99.90;;;;;;5155862;27;20417;-73
2022/03/27 09:41:45;;;;;;;;;;;8.50;99.90;;;;;;5155435;27;19923;-72
2022/03/27 09:44:11;;;;;;;;;;;8.60;99.90;;;;;;5155541;27;19923;-70
2022/03/27 09:46:47;;;;;;;;;;;8.70;99.90;;;;;;5155693;27;20298;-71
2022/03/27 09:49:13;;;;;;;;;;;8.80;99.90;;;;;;5154959;27;19927;-70
2022/03/27 09:51:56;;;;;;;;;;;8.80;99.90;;;;;;5155427;27;19973;-72
2022/03/27 09:54:22;;;;;;;;;;;8.90;99.90;;;;;;5155538;27;20289;-71
2022/03/27 09:56:50;;;;;;;;;;;9.10;99.90;;;;;;5136532;27;21238;-69
2022/03/27 09:59:26;;;;;;;;;;;9.20;99.90;;;;;;5134211;27;20010;-72
2022/03/27 10:01:51;;;;;;;;;;;9.30;99.90;;;;;;5136476;27;19923;-71
2022/03/27 10:04:17;;;;;;;;;;;9.50;99.90;;;;;;5134519;27;20021;-73
2022/03/27 10:06:43;;;;;;;;;;;9.50;99.90;;;;;;5134902;27;19927;-72
2022/03/27 10:09:12;;;;;;;;;;;9.50;99.90;;;;;;5135939;27;19931;-72
2022/03/27 10:11:38;;;;;;;;;;;9.60;99.90;;;;;;5139797;27;20397;-72
2022/03/27 10:14:04;;;;;;;;;;;9.60;99.90;;;;;;5134528;27;19928;-72
2022/03/27 10:16:32;;;;;;;;;;;9.70;99.90;;;;;;5134437;27;19923;-71
2022/03/27 10:19:02;;;;;;;;;;;9.80;99.90;;;;;;5134494;28;19968;-72
2022/03/27 10:21:28;;;;;;;;;;;9.90;99.90;;;;;;5134725;28;19962;-71
2022/03/27 10:24:20;;;;;;;;;;;10.00;99.90;;;;;;5134692;28;19927;-71
2022/03/27 10:26:45;;;;;;;;;;;10.00;99.90;;;;;;5113094;28;19930;-74
2022/03/27 10:29:12;;;;;;;;;;;10.00;99.90;;;;;;5134488;28;19923;-73
2022/03/27 10:31:38;;;;;;;;;;;10.20;99.90;;;;;;5134658;28;19923;-71
2022/03/27 10:34:05;;;;;;;;;;;9.50;99.90;;;;;;5134356;28;19927;-72
2022/03/27 10:36:36;;;;;;;;;;;10.30;99.90;;;;;;5134486;28;19969;-72
2022/03/27 10:39:20;;;;;;;;;;;10.40;99.90;;;;;;5136725;27;19933;-73
2022/03/27 10:41:54;;;;;;;;;;;10.50;99.90;;;;;;5120492;27;19923;-72
2022/03/27 10:44:24;;;;;;;;;;;10.60;99.90;;;;;;5138740;27;19975;-72
2022/03/27 10:47:08;;;;;;;;;;;10.80;99.90;;;;;;5138610;27;19924;-71
2022/03/27 10:49:34;;;;;;;;;;;10.80;99.90;;;;;;5138484;27;19930;-71
2022/03/27 10:52:04;;;;;;;;;;;10.90;99.90;;;;;;5138558;27;19923;-72
2022/03/27 10:54:29;;;;;;;;;;;10.90;99.90;;;;;;5119907;27;19946;-74
2022/03/27 10:56:55;;;;;;;;;;;11.10;99.90;;;;;;5120570;27;20363;-72
2022/03/27 10:59:20;;;;;;;;;;;10.40;99.90;;;;;;5124287;27;20397;-72
2022/03/27 11:01:50;;;;;;;;;;;11.10;99.90;;;;;;5099748;28;19924;-71
2022/03/27 11:04:17;;;;;;;;;;;11.20;99.90;;;;;;5117472;28;19924;-74
2022/03/27 11:06:44;;;;;;;;;;;11.30;99.90;;;;;;5117615;28;19934;-75
2022/03/27 11:09:13;;;;;;;;;;;11.30;99.90;;;;;;5117487;28;19924;-72
2022/03/27 11:11:39;;;;;;;;;;;11.40;99.90;;;;;;5082813;28;19974;-74
2022/03/27 11:14:09;;;;;;;;;;;11.50;99.90;;;;;;5117551;28;20290;-71
2022/03/27 11:16:54;;;;;;;;;;;11.60;99.90;;;;;;5117405;28;20015;-72
2022/03/27 11:19:59;;;;;;;;;;;11.70;99.90;;;;;;5099399;28;19924;-73
2022/03/27 11:22:52;;;;;;;;;;;11.70;99.90;;;;;;5014717;28;19932;-73
2022/03/27 11:25:31;;;;;;;;;;;11.80;99.90;;;;;;5014797;28;20125;-71
2022/03/27 11:28:03;;;;;;;;;;;11.80;99.90;;;;;;5014701;28;20346;-71
2022/03/27 11:30:28;;;;;;;;;;;11.90;99.90;;;;;;5014635;28;20328;-71
2022/03/27 11:33:12;;;;;;;;;;;11.90;99.90;;;;;;5014535;28;20025;-73
2022/03/27 11:35:38;;;;;;;;;;;11.90;99.90;;;;;;5014232;28;19977;-73
2022/03/27 11:38:19;;;;;;;;;;;12.00;99.90;;;;;;5014567;28;20536;-72
2022/03/27 11:40:44;;;;;;;;;;;12.10;99.90;;;;;;5014474;28;19930;-72
2022/03/27 11:43:29;;;;;;;;;;;12.10;99.90;;;;;;5014374;28;19926;-72
2022/03/27 11:45:56;;;;;;;;;;;12.20;99.90;;;;;;5014232;28;20038;-73
2022/03/27 11:48:22;;;;;;;;;;;12.40;99.90;;;;;;4998259;28;20017;-73
2022/03/27 11:50:48;;;;;;;;;;;12.30;99.90;;;;;;5012887;28;20016;-71
2022/03/27 11:53:13;;;;;;;;;;;12.40;99.90;;;;;;5067993;28;19928;-73
2022/03/27 11:55:39;;;;;;;;;;;12.70;99.90;;;;;;5098376;28;19924;-72
2022/03/27 11:58:07;;;;;;;;;;;12.50;99.90;;;;;;5119652;27;20057;-71
2022/03/27 12:00:34;;;;;;;;;;;12.50;99.90;;;;;;5137311;27;19935;-73
2022/03/27 12:03:01;;;;;;;;;;;12.60;99.90;;;;;;5118552;27;19931;-72
2022/03/27 12:05:37;;;;;;;;;;;12.70;99.90;;;;;;5136780;27;19924;-72
2022/03/27 12:08:03;;;;;;;;;;;12.80;99.90;;;;;;5136883;27;20404;-73
2022/03/27 12:10:38;;;;;;;;;;;12.80;99.90;;;;;;5137110;27;19979;-73
2022/03/27 12:13:07;;;;;;;;;;;12.80;99.90;;;;;;5137006;27;20301;-72
2022/03/27 12:15:37;;;;;;;;;;;12.80;99.90;;;;;;5136674;27;20305;-71
2022/03/27 12:18:03;;;;;;;;;;;12.90;99.90;;;;;;5136767;27;20275;-72
2022/03/27 12:20:29;;;;;;;;;;;12.90;99.90;;;;;;5136682;27;19931;-74
2022/03/27 12:22:56;;;;;;;;;;;12.90;99.90;;;;;;5136890;27;20436;-72
2022/03/27 12:25:22;;;;;;;;;;;13.00;99.90;;;;;;5136873;27;19924;-73
2022/03/27 12:30:53;;;;;;;;;;;13.00;99.90;;;;;;5136514;27;20301;-72
2022/03/27 12:33:20;;;;;;;;;;;13.00;99.90;;;;;;5136295;27;19923;-73
2022/03/27 12:35:47;;;;;;;;;;;13.10;99.90;;;;;;5136271;27;20040;-72
2022/03/27 12:38:13;;;;;;;;;;;13.10;99.90;;;;;;5136529;27;19931;-73
2022/03/27 12:40:42;;;;;;;;;;;13.20;99.90;;;;;;5136400;27;19924;-71
2022/03/27 12:43:12;;;;;;;;;;;13.20;99.90;;;;;;5136279;27;19989;-71
2022/03/27 12:45:40;;;;;;;;;;;13.20;99.90;;;;;;5136138;27;19924;-72
2022/03/27 12:48:11;;;;;;;;;;;13.10;99.90;;;;;;5136344;27;19923;-73
2022/03/27 12:50:38;;;;;;;;;;;13.10;99.90;;;;;;5136267;27;19924;-73
2022/03/27 12:53:09;;;;;;;;;;;13.20;99.90;;;;;;5117816;27;19928;-71
2022/03/27 12:55:49;;;;;;;;;;;13.30;99.90;;;;;;5135972;27;19924;-71
2022/03/27 12:58:16;;;;;;;;;;;12.80;99.90;;;;;;5135614;27;19984;-71
2022/03/27 13:00:43;;;;;;;;;;;13.30;99.90;;;;;;5135762;27;19924;-71
2022/03/27 13:03:12;;;;;;;;;;;13.30;99.90;;;;;;5135964;27;20370;-73
2022/03/27 13:05:39;;;;;;;;;;;13.40;99.90;;;;;;5135729;27;19924;-71
2022/03/27 13:08:06;;;;;;;;;;;13.80;99.90;;;;;;5135697;27;19924;-73
2022/03/27 13:10:31;;;;;;;;;;;13.50;99.90;;;;;;5135747;27;19933;-70
2022/03/27 13:13:07;;;;;;;;;;;13.50;99.90;;;;;;5135497;27;19923;-71
2022/03/27 13:15:36;;;;;;;;;;;13.50;99.90;;;;;;5135760;27;20016;-72
2022/03/27 13:18:10;;;;;;;;;;;13.60;99.90;;;;;;5135737;27;19923;-73
2022/03/27 13:20:36;;;;;;;;;;;13.50;99.90;;;;;;5135470;27;19923;-72
2022/03/27 13:23:02;;;;;;;;;;;13.60;99.90;;;;;;5135450;27;19977;-71
2022/03/27 13:25:28;;;;;;;;;;;13.60;99.90;;;;;;5135384;27;19984;-72
2022/03/27 13:27:55;;;;;;;;;;;13.60;99.90;;;;;;5133969;27;20018;-73
2022/03/27 13:30:21;;;;;;;;;;;13.60;99.90;;;;;;5135473;27;20041;-72
2022/03/27 13:32:46;;;;;;;;;;;13.70;99.90;;;;;;5135474;27;19928;-73
2022/03/27 13:35:12;;;;;;;;;;;13.70;99.90;;;;;;5135075;27;19969;-72
2022/03/27 13:37:38;;;;;;;;;;;13.70;99.90;;;;;;5135165;27;19923;-71
2022/03/27 13:40:04;;;;;;;;;;;13.70;99.90;;;;;;5135223;27;19971;-74
2022/03/27 13:45:13;;;;;;;;;;;13.70;99.90;;;;;;5135225;27;19987;-75
2022/03/27 13:47:39;;;;;;;;;;;13.70;99.90;;;;;;5135200;27;19927;-71
2022/03/27 13:50:05;;;;;;;;;;;13.70;99.90;;;;;;5134997;27;19923;-73
2022/03/27 13:52:31;;;;;;;;;;;13.80;99.00;;;;;;5135324;27;19923;-72
2022/03/27 13:54:57;;;;;;;;;;;13.90;99.10;;;;;;5116344;28;19930;-72
2022/03/27 13:57:23;;;;;;;;;;;14.00;98.60;;;;;;5116823;27;20014;-71
2022/03/27 13:59:49;;;;;;;;;;;14.00;94.20;;;;;;5134989;27;19923;-72
2022/03/27 14:02:15;;;;;;;;;;;14.00;97.50;;;;;;5134871;27;19930;-72
2022/03/27 14:04:40;;;;;;;;;;;14.00;93.60;;;;;;5134710;27;19923;-71
2022/03/27 14:07:06;;;;;;;;;;;14.00;90.00;;;;;;5134864;27;20263;-73
2022/03/27 14:09:33;;;;;;;;;;;14.10;89.60;;;;;;5134690;27;19923;-72
2022/03/27 14:11:58;;;;;;;;;;;14.10;85.20;;;;;;5116392;28;19923;-71
2022/03/27 14:14:24;;;;;;;;;;;14.20;75.30;;;;;;5115980;27;19924;-72
2022/03/27 14:16:52;;;;;;;;;;;14.20;73.80;;;;;;5134830;27;19924;-71
2022/03/27 14:19:18;;;;;;;;;;;14.10;71.20;;;;;;5134672;28;19924;-72
2022/03/27 14:21:44;;;;;;;;;;;14.20;72.20;;;;;;5134472;28;20027;-74
2022/03/27 14:24:09;;;;;;;;;;;14.20;69.40;;;;;;5134531;28;19923;-71
2022/03/27 14:26:35;;;;;;;;;;;14.20;71.30;;;;;;5116147;28;20044;-71
2022/03/27 14:29:00;;;;;;;;;;;14.30;69.00;;;;;;5134780;28;19923;-72
2022/03/27 14:31:26;;;;;;;;;;;14.30;68.30;;;;;;5134577;28;19946;-74
2022/03/27 14:33:51;;;;;;;;;;;14.30;68.90;;;;;;5117129;27;19962;-72
2022/03/27 14:36:18;;;;;;;;;;;14.30;67.20;;;;;;5155188;27;20393;-71